Terminal Aerodrome Forecast
Issued by NWS Greer, SC

Home | Current Version | Previous Version | Text Only | Print | Product List | Glossary On
Versions: 1 2 3 4 5 6 7 8 9 10 11 12 13 14 15 16 17 18 19 20 21 22 23 24 25 26 27 28
000
FTUS42 KGSP 192339
TAFAVL
TAF
KAVL 192339Z 2000/2024 34006KT P6SM SCT060 OVC200
     FM200900 VRB04KT P6SM VCSH OVC045
     FM201100 13004KT P6SM -RASN OVC030
     FM201400 15003KT P6SM VCSH OVC030=

USA.gov is the U.S. government's official web portal to all federal, state and local government web resources and services.